createdAt,value
2019-02-15T00:01:03.542Z,99.90
2019-02-15T00:06:04.664Z,99.90
2019-02-15T00:11:05.779Z,99.90
2019-02-15T00:16:06.983Z,99.90
2019-02-15T00:21:12.717Z,99.90
2019-02-15T00:26:13.836Z,99.90
2019-02-15T00:31:17.448Z,99.90
2019-02-15T00:36:18.583Z,99.90
2019-02-15T00:41:19.665Z,99.90
2019-02-15T00:46:31.811Z,99.90
2019-02-15T00:51:34.927Z,99.90
2019-02-15T00:56:40.677Z,99.90
2019-02-15T01:01:43.676Z,99.90
2019-02-15T01:06:46.687Z,99.90
2019-02-15T01:11:52.472Z,99.90
2019-02-15T01:16:53.559Z,99.90
2019-02-15T01:21:54.667Z,99.90
2019-02-15T01:26:57.688Z,99.90
2019-02-15T01:32:09.287Z,99.90
2019-02-15T01:37:12.280Z,99.90
2019-02-15T01:42:18.076Z,99.90
2019-02-15T01:47:19.779Z,99.90
2019-02-15T01:52:20.887Z,99.90
2019-02-15T01:57:21.987Z,99.90
2019-02-15T02:02:24.979Z,99.90
2019-02-15T02:07:26.584Z,99.90
2019-02-15T02:12:27.710Z,99.90
2019-02-15T02:17:28.806Z,99.90
2019-02-15T02:22:29.996Z,99.90
2019-02-15T02:27:31.119Z,99.90
2019-02-15T02:32:32.212Z,99.90
2019-02-15T02:37:33.314Z,99.90
2019-02-15T02:42:34.459Z,99.90
2019-02-15T02:47:35.568Z,99.90
2019-02-15T02:52:36.661Z,99.90
2019-02-15T02:57:37.777Z,99.90
2019-02-15T03:02:38.960Z,99.90
2019-02-15T03:07:40.167Z,99.90
2019-02-15T03:12:41.386Z,99.90
2019-02-15T03:17:42.488Z,99.90
2019-02-15T03:22:43.583Z,99.90
2019-02-15T03:27:44.713Z,99.90
2019-02-15T03:32:45.768Z,99.90
2019-02-15T03:37:54.568Z,99.90
2019-02-15T03:42:55.694Z,99.90
2019-02-15T03:47:56.767Z,99.90
2019-02-15T03:52:57.873Z,99.90
2019-02-15T03:57:58.968Z,99.90
2019-02-15T04:03:00.165Z,99.90
2019-02-15T04:08:01.277Z,99.90
2019-02-15T04:13:02.388Z,99.90
2019-02-15T04:18:03.488Z,99.90
2019-02-15T04:23:04.583Z,99.90
2019-02-15T04:28:05.699Z,99.90
2019-02-15T04:33:06.804Z,99.90
2019-02-15T04:38:07.887Z,99.90
2019-02-15T04:43:08.993Z,99.90
2019-02-15T04:48:10.080Z,99.90
2019-02-15T04:53:11.184Z,99.90
2019-02-15T04:58:12.295Z,99.90
2019-02-15T05:03:13.387Z,99.90
2019-02-15T05:08:14.490Z,99.90
2019-02-15T05:13:15.603Z,99.90
2019-02-15T05:18:16.713Z,99.90
2019-02-15T05:23:17.851Z,99.90
2019-02-15T05:28:18.968Z,99.90
2019-02-15T05:33:20.085Z,99.90
2019-02-15T05:38:21.195Z,99.90
2019-02-15T05:43:22.300Z,99.90
2019-02-15T05:48:23.383Z,99.90
2019-02-15T05:53:24.499Z,99.90
2019-02-15T05:58:25.600Z,99.90
2019-02-15T06:03:26.700Z,99.90
2019-02-15T06:08:27.828Z,99.90
2019-02-15T06:13:29.042Z,99.90
2019-02-15T06:18:30.148Z,99.90
2019-02-15T06:23:31.239Z,99.90
2019-02-15T06:28:32.356Z,99.90
2019-02-15T06:33:33.452Z,99.90
2019-02-15T06:38:35.280Z,99.90
2019-02-15T06:43:36.457Z,99.90
2019-02-15T06:48:37.586Z,99.90
2019-02-15T06:53:38.774Z,99.90
2019-02-15T06:58:45.684Z,99.90
2019-02-15T07:03:58.737Z,99.90
2019-02-15T07:09:01.385Z,99.90
2019-02-15T07:14:02.499Z,99.90
2019-02-15T07:19:03.604Z,99.90
2019-02-15T07:24:04.698Z,99.90
2019-02-15T07:29:05.817Z,99.90
2019-02-15T07:34:06.904Z,99.90
2019-02-15T07:39:08.119Z,99.90
2019-02-15T07:44:09.226Z,99.90
2019-02-15T07:49:10.340Z,99.90
2019-02-15T07:54:11.432Z,99.90
2019-02-15T07:59:12.547Z,99.90
2019-02-15T08:04:13.649Z,99.90
2019-02-15T08:09:14.786Z,99.90
2019-02-15T08:14:17.547Z,99.90
2019-02-15T08:19:21.066Z,99.90
2019-02-15T08:24:22.011Z,99.90
2019-02-15T08:29:23.226Z,99.90
2019-02-15T08:34:24.323Z,99.90
2019-02-15T08:39:25.433Z,99.60
2019-02-15T08:44:26.521Z,83.50
2019-02-15T08:49:27.621Z,70.40
2019-02-15T08:54:28.737Z,64.40
2019-02-15T08:59:29.829Z,59.90
2019-02-15T09:04:30.941Z,52.90
2019-02-15T09:09:32.023Z,54.30
2019-02-15T09:14:33.144Z,55.90
2019-02-15T09:19:34.254Z,58.30
2019-02-15T09:24:35.360Z,58.70
2019-02-15T09:29:36.476Z,57.70
2019-02-15T09:34:37.588Z,54.70
2019-02-15T09:39:39.573Z,49.70
2019-02-15T09:44:40.781Z,50.50
2019-02-15T09:49:42.696Z,50.70
2019-02-15T09:54:44.881Z,47.00
2019-02-15T09:59:45.991Z,41.60
2019-02-15T10:04:47.103Z,40.10
2019-02-15T10:09:48.215Z,40.90
2019-02-15T10:14:49.330Z,41.30
2019-02-15T10:19:50.441Z,39.50
2019-02-15T10:24:51.541Z,37.20
2019-02-15T10:29:52.651Z,37.60
2019-02-15T10:34:53.757Z,38.00
2019-02-15T10:39:54.882Z,38.50
2019-02-15T10:44:56.004Z,37.10
2019-02-15T10:49:57.099Z,39.10
2019-02-15T10:54:58.215Z,37.10
2019-02-15T10:59:59.315Z,35.40
2019-02-15T11:05:00.424Z,36.20
2019-02-15T11:10:01.946Z,37.10
2019-02-15T11:15:06.883Z,34.80
2019-02-15T11:20:10.779Z,36.10
2019-02-15T11:25:11.982Z,38.20
2019-02-15T11:30:14.567Z,37.60
2019-02-15T11:35:15.819Z,32.10
2019-02-15T11:40:16.942Z,33.50
2019-02-15T11:45:18.034Z,33.10
2019-02-15T11:50:19.241Z,31.40
2019-02-15T11:55:20.435Z,29.30
2019-02-15T12:00:29.238Z,27.30
2019-02-15T12:05:30.342Z,24.00
2019-02-15T12:10:31.447Z,23.60
2019-02-15T12:15:32.575Z,23.50
2019-02-15T12:20:34.230Z,21.80
2019-02-15T12:25:35.452Z,22.40
2019-02-15T12:30:38.600Z,21.10
2019-02-15T12:35:39.713Z,20.80
2019-02-15T12:40:40.830Z,22.30
2019-02-15T12:45:41.932Z,21.50
2019-02-15T12:50:43.226Z,21.80
2019-02-15T12:55:44.335Z,21.70
2019-02-15T13:00:45.435Z,20.50
2019-02-15T13:05:51.531Z,20.70
2019-02-15T13:10:52.732Z,21.30
2019-02-15T13:15:54.002Z,21.50
2019-02-15T13:20:55.142Z,20.10
2019-02-15T13:25:56.255Z,20.30
2019-02-15T13:30:57.460Z,20.50
2019-02-15T13:35:58.570Z,20.00
2019-02-15T13:40:59.678Z,19.40
2019-02-15T13:46:00.777Z,19.30
2019-02-15T13:51:01.874Z,19.30
2019-02-15T13:56:03.019Z,18.20
2019-02-15T14:01:04.115Z,17.50
2019-02-15T14:06:05.229Z,18.40
2019-02-15T14:11:06.344Z,17.70
2019-02-15T14:16:07.443Z,17.30
2019-02-15T14:21:08.540Z,17.40
2019-02-15T14:26:09.642Z,16.80
2019-02-15T14:31:10.792Z,16.70
2019-02-15T14:36:11.939Z,16.40
2019-02-15T14:41:13.060Z,16.60
2019-02-15T14:46:14.171Z,17.00
2019-02-15T14:51:15.265Z,16.30
2019-02-15T14:56:16.384Z,17.00
2019-02-15T15:01:17.495Z,17.20
2019-02-15T15:06:18.601Z,17.60
2019-02-15T15:11:19.731Z,18.50
2019-02-15T15:16:20.873Z,18.20
2019-02-15T15:21:21.977Z,18.20
2019-02-15T15:26:23.074Z,17.90
2019-02-15T15:31:24.220Z,18.10
2019-02-15T15:36:25.310Z,20.30
2019-02-15T15:41:26.417Z,20.30
2019-02-15T15:46:27.552Z,19.90
2019-02-15T15:51:28.651Z,19.60
2019-02-15T15:56:29.760Z,20.40
2019-02-15T16:01:30.859Z,20.50
2019-02-15T16:06:32.086Z,25.30
2019-02-15T16:11:33.222Z,30.40
2019-02-15T16:16:34.537Z,34.20
2019-02-15T16:21:35.631Z,37.40
2019-02-15T16:26:36.743Z,40.20
2019-02-15T16:31:37.878Z,41.90
2019-02-15T16:36:38.984Z,44.20
2019-02-15T16:41:40.089Z,45.90
2019-02-15T16:46:41.304Z,47.80
2019-02-15T16:51:42.415Z,50.00
2019-02-15T16:56:43.519Z,51.40
2019-02-15T17:01:44.627Z,52.00
2019-02-15T17:06:45.842Z,52.70
2019-02-15T17:11:46.977Z,52.40
2019-02-15T17:16:48.092Z,51.50
2019-02-15T17:21:49.193Z,52.30
2019-02-15T17:26:50.392Z,52.60
2019-02-15T17:31:53.870Z,53.40
2019-02-15T17:36:55.044Z,55.50
2019-02-15T17:41:56.160Z,57.30
2019-02-15T17:46:57.263Z,59.80
2019-02-15T17:51:59.411Z,63.30
2019-02-15T17:57:00.508Z,64.30
2019-02-15T18:02:01.960Z,68.20
2019-02-15T18:07:03.085Z,66.10
2019-02-15T18:12:04.322Z,65.70
2019-02-15T18:17:05.453Z,65.50
2019-02-15T18:22:06.732Z,64.00
2019-02-15T18:27:07.951Z,65.60
2019-02-15T18:32:09.085Z,63.80
2019-02-15T18:37:10.188Z,67.70
2019-02-15T18:42:11.304Z,69.10
2019-02-15T18:47:12.453Z,69.50
2019-02-15T18:52:13.556Z,65.80
2019-02-15T18:57:14.664Z,62.70
2019-02-15T19:02:15.883Z,63.20
2019-02-15T19:07:17.155Z,63.10
2019-02-15T19:12:18.347Z,64.80
2019-02-15T19:17:19.489Z,65.40
2019-02-15T19:22:20.584Z,64.60
2019-02-15T19:27:21.811Z,65.30
2019-02-15T19:32:22.950Z,68.00
2019-02-15T19:37:24.174Z,67.60
2019-02-15T19:42:25.426Z,67.80
2019-02-15T19:47:26.650Z,66.70
2019-02-15T19:52:27.781Z,66.70
2019-02-15T19:57:29.085Z,68.20
2019-02-15T20:02:30.212Z,70.50
2019-02-15T20:07:31.363Z,71.50
2019-02-15T20:12:32.604Z,71.90
2019-02-15T20:17:33.788Z,69.30
2019-02-15T20:22:34.930Z,69.90
2019-02-15T20:27:36.253Z,68.20
2019-02-15T20:32:37.517Z,68.80
2019-02-15T20:37:38.863Z,63.80
2019-02-15T20:42:40.260Z,60.60
2019-02-15T20:47:41.388Z,60.80
2019-02-15T20:52:42.603Z,61.60
2019-02-15T20:57:43.732Z,59.90
2019-02-15T21:02:44.879Z,69.80
2019-02-15T21:07:45.971Z,82.90
2019-02-15T21:12:47.840Z,94.10
2019-02-15T21:17:49.315Z,99.90
2019-02-15T21:22:50.439Z,99.90
2019-02-15T21:27:51.556Z,99.90
2019-02-15T21:32:52.698Z,99.90
2019-02-15T21:37:53.805Z,99.90
2019-02-15T21:42:54.925Z,99.90
2019-02-15T21:47:56.136Z,99.90
2019-02-15T21:52:57.266Z,99.90
2019-02-15T21:58:01.485Z,99.90
2019-02-15T22:03:01.462Z,99.90
2019-02-15T22:08:02.563Z,99.90
2019-02-15T22:13:05.340Z,99.90
2019-02-15T22:18:06.454Z,99.90
2019-02-15T22:23:07.569Z,99.90
2019-02-15T22:28:08.679Z,99.90
2019-02-15T22:33:09.904Z,99.90
2019-02-15T22:38:11.113Z,99.90
2019-02-15T22:43:15.447Z,99.90
2019-02-15T22:48:16.643Z,99.90
2019-02-15T22:53:17.760Z,99.90
2019-02-15T22:58:18.868Z,99.90
2019-02-15T23:03:22.272Z,99.90
2019-02-15T23:08:23.584Z,99.90
2019-02-15T23:13:24.716Z,99.90
2019-02-15T23:18:25.837Z,99.90
2019-02-15T23:23:26.937Z,99.90
2019-02-15T23:28:28.606Z,99.90
2019-02-15T23:33:29.815Z,99.90
2019-02-15T23:38:30.915Z,99.90
2019-02-15T23:43:32.016Z,99.90
2019-02-15T23:48:33.132Z,99.90
2019-02-15T23:53:34.224Z,99.90
2019-02-15T23:58:35.340Z,99.90
